createdAt,value
2022-09-02T00:01:39.998Z,3.80
2022-09-02T00:04:18.693Z,3.53
2022-09-02T00:06:48.389Z,4.43
2022-09-02T00:09:17.336Z,3.30
2022-09-02T00:11:45.656Z,3.80
2022-09-02T00:14:17.644Z,3.93
2022-09-02T00:16:51.041Z,3.53
2022-09-02T00:19:21.386Z,3.50
2022-09-02T00:21:48.423Z,4.10
2022-09-02T00:24:14.986Z,3.93
2022-09-02T00:26:41.602Z,3.50
2022-09-02T00:29:08.196Z,3.87
2022-09-02T00:31:36.550Z,3.10
2022-09-02T00:34:04.882Z,3.40
2022-09-02T00:36:31.401Z,3.60
2022-09-02T00:39:00.135Z,3.87
2022-09-02T00:41:28.818Z,4.20
2022-09-02T00:44:03.449Z,3.50
2022-09-02T00:46:31.592Z,3.57
2022-09-02T00:49:26.551Z,3.43
2022-09-02T00:51:55.003Z,4.00
2022-09-02T00:54:23.039Z,3.30
2022-09-02T00:56:53.832Z,3.47
2022-09-02T00:59:43.929Z,3.50
2022-09-02T01:02:11.339Z,3.60
2022-09-02T01:04:38.009Z,3.20
2022-09-02T01:07:06.078Z,3.60
2022-09-02T01:09:36.107Z,3.50
2022-09-02T01:12:07.952Z,4.00
2022-09-02T01:14:35.292Z,3.27
2022-09-02T01:17:06.928Z,3.67
2022-09-02T01:19:36.802Z,3.70
2022-09-02T01:22:06.491Z,3.47
2022-09-02T01:24:33.126Z,3.90
2022-09-02T01:27:00.098Z,3.30
2022-09-02T01:29:29.215Z,4.10
2022-09-02T01:32:00.476Z,3.07
2022-09-02T01:34:26.911Z,3.43
2022-09-02T01:36:55.943Z,4.77
2022-09-02T01:39:24.805Z,3.23
2022-09-02T01:41:54.531Z,3.73
2022-09-02T01:44:24.281Z,3.63
2022-09-02T01:46:53.843Z,3.47
2022-09-02T01:49:23.014Z,3.63
2022-09-02T01:51:49.934Z,3.47
2022-09-02T01:54:16.360Z,3.77
2022-09-02T01:56:43.059Z,3.13
2022-09-02T01:59:11.699Z,3.43
2022-09-02T02:01:38.202Z,3.53
2022-09-02T02:04:12.730Z,3.43
2022-09-02T02:06:47.441Z,3.73
2022-09-02T02:09:18.799Z,3.43
2022-09-02T02:11:48.595Z,3.77
2022-09-02T02:14:15.702Z,3.00
2022-09-02T02:16:42.137Z,4.23
2022-09-02T02:19:08.665Z,4.03
2022-09-02T02:21:37.552Z,3.53
2022-09-02T02:24:04.246Z,3.90
2022-09-02T02:26:34.011Z,3.10
2022-09-02T02:29:00.550Z,3.40
2022-09-02T02:31:31.881Z,3.40
2022-09-02T02:34:01.801Z,3.47
2022-09-02T02:36:30.746Z,3.30
2022-09-02T02:39:01.451Z,3.27
2022-09-02T02:41:30.329Z,4.40
2022-09-02T02:43:56.945Z,3.37
2022-09-02T02:46:23.479Z,3.17
2022-09-02T02:48:50.858Z,3.80
2022-09-02T02:51:17.563Z,3.30
2022-09-02T02:53:47.445Z,3.23
2022-09-02T02:56:16.123Z,3.30
2022-09-02T02:58:42.600Z,4.40
2022-09-02T03:01:11.521Z,4.23
2022-09-02T03:03:40.546Z,4.50
2022-09-02T03:06:09.595Z,4.20
2022-09-02T03:08:38.308Z,3.30
2022-09-02T03:11:09.950Z,3.33
2022-09-02T03:13:36.671Z,2.80
2022-09-02T03:16:05.252Z,3.47
2022-09-02T03:18:32.379Z,3.30
2022-09-02T03:21:04.927Z,2.97
2022-09-02T03:23:31.346Z,3.40
2022-09-02T03:26:00.072Z,3.00
2022-09-02T03:28:29.240Z,3.17
2022-09-02T03:30:57.966Z,2.67
2022-09-02T03:33:24.411Z,3.10
2022-09-02T03:35:51.991Z,3.27
2022-09-02T03:38:18.964Z,3.20
2022-09-02T03:40:45.684Z,3.23
2022-09-02T03:43:14.997Z,3.10
2022-09-02T03:45:44.568Z,3.17
2022-09-02T03:48:15.094Z,3.43
2022-09-02T03:50:44.407Z,3.70
2022-09-02T03:53:18.337Z,2.93
2022-09-02T03:55:49.511Z,3.03
2022-09-02T03:58:17.685Z,3.37
2022-09-02T04:00:50.424Z,3.30
2022-09-02T04:03:16.964Z,2.97
2022-09-02T04:05:47.116Z,3.60
2022-09-02T04:08:13.677Z,3.10
2022-09-02T04:10:42.543Z,3.03
2022-09-02T04:13:11.484Z,2.93
2022-09-02T04:15:44.314Z,3.00
2022-09-02T04:19:07.335Z,3.03
2022-09-02T04:21:36.050Z,3.93
2022-09-02T04:24:03.263Z,3.23
2022-09-02T04:26:32.100Z,3.23
2022-09-02T04:29:03.119Z,3.43
2022-09-02T04:31:35.601Z,3.47
2022-09-02T04:34:04.512Z,3.63
2022-09-02T04:36:31.106Z,3.20
2022-09-02T04:38:58.131Z,2.80
2022-09-02T04:41:28.423Z,3.00
2022-09-02T04:43:56.471Z,3.53
2022-09-02T04:46:34.656Z,3.73
2022-09-02T04:49:04.257Z,3.43
2022-09-02T04:51:35.984Z,3.00
2022-09-02T04:54:02.511Z,3.13
2022-09-02T04:56:31.787Z,3.30
2022-09-02T04:58:58.441Z,3.00
2022-09-02T05:01:32.452Z,3.17
2022-09-02T05:03:59.855Z,2.80
2022-09-02T05:06:30.124Z,3.50
2022-09-02T05:09:00.605Z,2.90
2022-09-02T05:11:32.605Z,3.80
2022-09-02T05:14:01.713Z,2.40
2022-09-02T05:16:32.573Z,2.50
2022-09-02T05:19:00.251Z,3.37
2022-09-02T05:21:26.765Z,3.10
2022-09-02T05:23:54.702Z,3.40
2022-09-02T05:26:23.924Z,3.07
2022-09-02T05:28:52.691Z,3.53
2022-09-02T05:31:20.482Z,3.83
2022-09-02T05:33:49.339Z,3.20
2022-09-02T05:36:20.663Z,3.83
2022-09-02T05:38:47.888Z,3.50
2022-09-02T05:41:23.297Z,3.63
2022-09-02T05:43:51.203Z,2.77
2022-09-02T05:46:21.135Z,3.87
2022-09-02T05:49:07.020Z,4.10
2022-09-02T05:51:38.172Z,3.23
2022-09-02T05:54:07.153Z,3.17
2022-09-02T05:56:33.589Z,3.00
2022-09-02T05:59:02.972Z,3.33
2022-09-02T06:01:30.180Z,4.83
2022-09-02T06:03:58.052Z,5.77
2022-09-02T06:06:24.660Z,4.67
2022-09-02T06:08:53.592Z,3.20
2022-09-02T06:11:22.348Z,4.33
2022-09-02T06:13:49.342Z,3.43
2022-09-02T06:16:20.548Z,2.47
2022-09-02T06:18:47.595Z,2.85
2022-09-02T06:21:14.676Z,2.13
2022-09-02T06:23:41.988Z,2.30
2022-09-02T06:26:09.747Z,2.72
2022-09-02T06:28:39.758Z,3.05
2022-09-02T06:31:11.125Z,1.60
2022-09-02T06:33:38.093Z,2.53
2022-09-02T06:36:09.597Z,3.30
2022-09-02T06:38:45.947Z,1.80
2022-09-02T06:41:19.484Z,2.60
2022-09-02T06:43:46.380Z,2.28
2022-09-02T06:46:21.050Z,2.53
2022-09-02T06:48:50.100Z,1.40
2022-09-02T06:51:24.831Z,1.55
2022-09-02T06:53:52.896Z,2.50
2022-09-02T06:56:19.539Z,2.15
2022-09-02T06:58:46.041Z,2.38
2022-09-02T07:01:35.412Z,1.90
2022-09-02T07:04:21.072Z,3.58
2022-09-02T07:06:53.509Z,3.15
2022-09-02T07:09:31.197Z,1.40
2022-09-02T07:12:05.343Z,1.52
2022-09-02T07:14:36.500Z,1.70
2022-09-02T07:17:05.421Z,2.13
2022-09-02T07:19:34.627Z,1.50
2022-09-02T07:22:05.916Z,3.10
2022-09-02T07:24:32.604Z,2.00
2022-09-02T07:26:59.092Z,2.53
2022-09-02T07:29:25.556Z,2.05
2022-09-02T07:31:52.022Z,2.03
2022-09-02T07:34:18.936Z,1.60
2022-09-02T07:36:48.549Z,3.05
2022-09-02T07:39:16.454Z,2.03
2022-09-02T07:41:45.636Z,1.70
2022-09-02T07:44:12.864Z,1.48
2022-09-02T07:46:40.067Z,1.80
2022-09-02T07:49:11.124Z,1.20
2022-09-02T07:51:42.373Z,2.20
2022-09-02T07:54:13.971Z,2.78
2022-09-02T07:56:40.801Z,3.40
2022-09-02T07:59:10.255Z,2.88
2022-09-02T08:01:37.150Z,1.55
2022-09-02T08:04:06.283Z,2.00
2022-09-02T08:06:35.073Z,1.40
2022-09-02T08:09:11.072Z,1.88
2022-09-02T08:11:39.769Z,2.38
2022-09-02T08:14:08.828Z,2.55
2022-09-02T08:16:36.038Z,2.05
2022-09-02T08:19:02.563Z,1.95
2022-09-02T08:21:31.544Z,2.97
2022-09-02T08:24:00.369Z,1.20
2022-09-02T08:26:29.414Z,1.77
2022-09-02T08:28:58.414Z,2.42
2022-09-02T08:31:24.959Z,1.70
2022-09-02T08:33:51.444Z,4.22
2022-09-02T08:36:21.075Z,1.55
2022-09-02T08:38:47.796Z,1.48
2022-09-02T08:41:23.202Z,2.92
2022-09-02T08:43:51.696Z,2.53
2022-09-02T08:46:18.937Z,1.75
2022-09-02T08:48:54.148Z,2.35
2022-09-02T08:51:27.245Z,1.95
2022-09-02T08:54:08.183Z,2.35
2022-09-02T08:56:36.957Z,3.28
2022-09-02T08:59:09.405Z,1.27
2022-09-02T09:01:46.320Z,2.08
2022-09-02T09:04:15.700Z,1.45
2022-09-02T09:07:16.622Z,0.95
2022-09-02T09:09:55.060Z,1.48
2022-09-02T09:12:39.952Z,2.67
2022-09-02T09:15:11.486Z,1.60
2022-09-02T09:17:44.643Z,1.30
2022-09-02T09:20:22.812Z,1.50
2022-09-02T09:22:53.623Z,3.08
2022-09-02T09:25:20.218Z,1.83
2022-09-02T09:27:46.628Z,2.72
2022-09-02T09:30:16.249Z,2.05
2022-09-02T09:32:48.142Z,1.00
2022-09-02T09:35:23.547Z,1.50
2022-09-02T09:37:51.957Z,2.22
2022-09-02T09:40:32.420Z,3.08
2022-09-02T09:43:14.387Z,1.27
2022-09-02T09:45:41.997Z,2.80
2022-09-02T09:48:22.946Z,2.13
2022-09-02T09:51:10.309Z,2.25
2022-09-02T09:53:37.793Z,1.27
2022-09-02T09:56:14.291Z,2.17
2022-09-02T09:58:40.707Z,1.35
2022-09-02T10:01:26.939Z,4.28
2022-09-02T10:03:58.388Z,1.20
2022-09-02T10:06:26.006Z,1.17
2022-09-02T10:08:57.972Z,1.20
2022-09-02T10:11:32.068Z,1.65
2022-09-02T10:14:10.220Z,1.60
2022-09-02T10:16:47.244Z,2.35
2022-09-02T10:19:34.094Z,0.80
2022-09-02T10:22:37.849Z,1.30
2022-09-02T10:25:26.597Z,2.25
2022-09-02T10:28:15.118Z,1.25
2022-09-02T10:31:05.902Z,1.52
2022-09-02T10:33:51.743Z,1.45
2022-09-02T10:36:27.696Z,0.80
2022-09-02T10:38:54.881Z,1.17
2022-09-02T10:41:26.138Z,1.25
2022-09-02T10:44:30.343Z,1.33
2022-09-02T10:47:04.902Z,0.88
2022-09-02T10:50:04.601Z,2.25
2022-09-02T10:52:47.678Z,1.25
2022-09-02T10:55:33.673Z,1.70
2022-09-02T10:58:06.769Z,1.13
2022-09-02T11:00:34.189Z,1.20
2022-09-02T11:03:09.084Z,1.35
2022-09-02T11:05:55.811Z,5.15
2022-09-02T11:08:46.306Z,2.03
2022-09-02T11:11:21.428Z,0.90
2022-09-02T11:13:57.021Z,2.42
2022-09-02T11:16:29.375Z,0.90
2022-09-02T11:19:05.442Z,1.80
2022-09-02T11:21:37.369Z,1.02
2022-09-02T11:24:08.995Z,1.00
2022-09-02T11:26:50.944Z,0.80
2022-09-02T11:29:21.796Z,2.03
2022-09-02T11:32:20.334Z,1.67
2022-09-02T11:34:52.432Z,1.52
2022-09-02T11:37:30.756Z,1.17
2022-09-02T11:40:23.358Z,1.13
2022-09-02T11:43:03.842Z,0.85
2022-09-02T11:45:41.891Z,1.33
2022-09-02T11:48:22.640Z,2.47
2022-09-02T11:51:08.119Z,0.73
2022-09-02T11:53:40.595Z,1.23
2022-09-02T11:56:24.513Z,1.40
2022-09-02T11:58:52.952Z,1.20
2022-09-02T12:01:30.054Z,0.90
2022-09-02T12:07:10.578Z,1.00
2022-09-02T12:09:49.821Z,1.48
2022-09-02T12:12:38.258Z,1.05
2022-09-02T12:15:08.133Z,1.30
2022-09-02T12:17:40.810Z,1.00
2022-09-02T12:20:31.574Z,1.15
2022-09-02T12:22:58.352Z,1.10
2022-09-02T12:25:26.992Z,1.63
2022-09-02T12:28:32.373Z,1.20
2022-09-02T12:31:05.356Z,1.02
2022-09-02T12:33:38.337Z,1.33
2022-09-02T12:36:08.439Z,0.90
2022-09-02T12:38:43.191Z,1.48
2022-09-02T12:41:22.931Z,1.88
2022-09-02T12:44:21.781Z,1.40
2022-09-02T12:47:04.425Z,1.27
2022-09-02T12:49:38.991Z,2.20
2022-09-02T12:52:09.546Z,1.30
2022-09-02T12:54:42.099Z,1.90
2022-09-02T12:57:09.472Z,1.88
2022-09-02T12:59:40.689Z,1.00
2022-09-02T13:02:12.993Z,1.17
2022-09-02T14:00:52.403Z,2.03
2022-09-02T14:38:47.836Z,1.25
2022-09-02T14:41:17.245Z,2.05
2022-09-02T14:43:52.600Z,2.40
2022-09-02T14:46:39.066Z,1.25
2022-09-02T14:49:10.824Z,2.63
2022-09-02T14:51:45.735Z,1.30
2022-09-02T14:54:39.457Z,1.30
2022-09-02T14:57:32.901Z,1.30
2022-09-02T15:00:02.282Z,1.08
2022-09-02T15:02:28.659Z,2.13
2022-09-02T15:04:55.472Z,2.08
2022-09-02T15:07:22.609Z,1.10
2022-09-02T15:09:52.461Z,1.60
2022-09-02T15:12:24.626Z,1.55
2022-09-02T15:14:53.995Z,3.22
2022-09-02T15:17:20.962Z,1.42
2022-09-02T15:19:50.217Z,2.75
2022-09-02T15:22:19.956Z,1.17
2022-09-02T15:24:49.204Z,2.45
2022-09-02T15:27:17.264Z,1.42
2022-09-02T15:29:50.404Z,1.50
2022-09-02T15:32:19.085Z,0.95
2022-09-02T15:34:47.591Z,0.80
2022-09-02T15:37:18.580Z,2.42
2022-09-02T15:39:45.042Z,2.50
2022-09-02T15:42:11.534Z,1.75
2022-09-02T15:44:40.433Z,2.00
2022-09-02T15:47:09.090Z,1.10
2022-09-02T15:49:35.724Z,1.10
2022-09-02T15:52:04.566Z,1.77
2022-09-02T15:54:33.334Z,1.30
2022-09-02T15:56:59.829Z,1.67
2022-09-02T15:59:28.692Z,1.58
2022-09-02T16:01:56.478Z,1.92
2022-09-02T16:04:27.071Z,1.17
2022-09-02T16:06:55.938Z,1.27
2022-09-02T16:09:26.950Z,1.10
2022-09-02T16:11:57.014Z,1.85
2022-09-02T16:14:24.645Z,2.53
2022-09-02T16:16:53.146Z,1.25
2022-09-02T16:19:23.516Z,2.45
2022-09-02T16:21:51.096Z,1.27
2022-09-02T16:24:19.904Z,1.08
2022-09-02T16:26:46.391Z,1.17
2022-09-02T16:29:14.479Z,1.85
2022-09-02T16:31:42.476Z,2.90
2022-09-02T16:34:11.095Z,1.05
2022-09-02T16:36:43.297Z,1.27
2022-09-02T16:39:11.743Z,1.73
2022-09-02T16:41:42.142Z,2.03
2022-09-02T16:44:10.515Z,2.45
2022-09-02T16:46:43.467Z,1.60
2022-09-02T16:49:14.063Z,0.93
2022-09-02T16:51:40.891Z,2.08
2022-09-02T16:54:17.313Z,2.35
2022-09-02T16:56:46.861Z,1.75
2022-09-02T16:59:13.421Z,2.15
2022-09-02T17:01:40.642Z,1.25
2022-09-02T17:04:09.876Z,1.77
2022-09-02T17:06:42.293Z,1.45
2022-09-02T17:09:11.236Z,2.30
2022-09-02T17:11:39.794Z,1.30
2022-09-02T17:14:11.929Z,2.05
2022-09-02T17:16:45.894Z,1.40
2022-09-02T17:19:16.973Z,3.65
2022-09-02T17:21:47.236Z,1.20
2022-09-02T17:24:14.852Z,2.33
2022-09-02T17:26:46.651Z,1.92
2022-09-02T17:29:47.129Z,1.17
2022-09-02T17:32:05.543Z,3.25
2022-09-02T17:34:36.792Z,3.60
2022-09-02T17:37:03.221Z,1.25
2022-09-02T17:39:30.489Z,0.80
2022-09-02T17:41:59.600Z,2.38
2022-09-02T17:44:35.880Z,5.53
2022-09-02T17:47:06.921Z,2.20
2022-09-02T17:49:36.715Z,1.70
2022-09-02T17:52:07.542Z,1.67
2022-09-02T17:54:40.741Z,4.00
2022-09-02T17:57:28.136Z,1.73
2022-09-02T18:00:12.904Z,2.13
2022-09-02T18:03:22.310Z,1.00
2022-09-02T18:06:10.043Z,1.42
2022-09-02T18:08:46.159Z,1.63
2022-09-02T18:11:16.296Z,2.60
2022-09-02T18:13:54.376Z,2.13
2022-09-02T18:16:27.429Z,3.45
2022-09-02T18:19:13.896Z,1.25
2022-09-02T18:22:03.335Z,2.15
2022-09-02T18:24:52.272Z,3.55
2022-09-02T18:27:33.912Z,2.85
2022-09-02T18:30:09.740Z,0.88
2022-09-02T18:32:55.928Z,2.53
2022-09-02T18:35:44.944Z,0.85
2022-09-02T18:38:21.363Z,1.13
2022-09-02T18:41:07.743Z,2.85
2022-09-02T18:43:44.063Z,1.75
2022-09-02T18:46:18.396Z,1.65
2022-09-02T18:48:46.707Z,3.63
2022-09-02T18:51:48.412Z,2.08
2022-09-02T18:54:19.177Z,1.13
2022-09-02T18:56:53.299Z,2.05
2022-09-02T18:59:29.985Z,1.33
2022-09-02T19:01:58.075Z,1.52
2022-09-02T19:04:29.634Z,1.17
2022-09-02T19:07:16.578Z,1.77
2022-09-02T19:09:47.532Z,1.77
2022-09-02T19:12:16.279Z,2.53
2022-09-02T19:14:42.848Z,2.13
2022-09-02T19:17:12.584Z,2.90
2022-09-02T19:19:39.123Z,2.13
2022-09-02T19:22:08.692Z,1.55
2022-09-02T19:24:50.657Z,1.67
2022-09-02T19:27:24.240Z,1.05
2022-09-02T19:29:58.019Z,2.03
2022-09-02T19:32:27.544Z,3.17
2022-09-02T19:34:57.809Z,3.70
2022-09-02T19:37:26.650Z,2.88
2022-09-02T19:39:54.068Z,1.35
2022-09-02T19:42:24.324Z,1.45
2022-09-02T19:44:53.431Z,2.80
2022-09-02T19:48:03.126Z,0.98
2022-09-02T19:50:07.585Z,2.63
2022-09-02T19:52:47.838Z,1.17
2022-09-02T19:55:17.874Z,1.60
2022-09-02T19:57:45.254Z,2.10
2022-09-02T20:00:13.507Z,2.67
2022-09-02T20:02:40.369Z,2.20
2022-09-02T20:05:13.948Z,2.20
2022-09-02T20:07:40.778Z,1.48
2022-09-02T20:10:10.724Z,2.63
2022-09-02T20:12:37.172Z,1.65
2022-09-02T20:15:05.310Z,1.30
2022-09-02T20:17:34.323Z,1.60
2022-09-02T20:20:08.241Z,1.65
2022-09-02T20:22:37.199Z,2.53
2022-09-02T20:25:04.025Z,1.55
2022-09-02T20:27:30.468Z,1.35
2022-09-02T20:30:04.346Z,1.33
2022-09-02T20:32:33.728Z,1.95
2022-09-02T20:35:06.177Z,1.33
2022-09-02T20:37:41.007Z,1.50
2022-09-02T20:40:34.176Z,1.88
2022-09-02T20:43:28.786Z,1.08
2022-09-02T20:46:35.532Z,1.75
2022-09-02T20:49:11.162Z,1.65
2022-09-02T20:51:43.707Z,1.27
2022-09-02T20:54:38.743Z,1.67
2022-09-02T20:57:23.761Z,1.20
2022-09-02T21:00:02.265Z,2.85
2022-09-02T21:02:32.851Z,1.10
2022-09-02T21:05:04.901Z,1.35
2022-09-02T21:07:45.302Z,2.63
2022-09-02T21:10:17.073Z,1.85
2022-09-02T21:12:49.628Z,1.20
2022-09-02T21:15:24.247Z,2.47
2022-09-02T21:17:53.989Z,1.95
2022-09-02T21:20:43.539Z,1.42
2022-09-02T21:23:31.811Z,2.50
2022-09-02T21:26:04.333Z,1.02
2022-09-02T21:28:54.889Z,4.20
2022-09-02T21:31:32.687Z,1.80
2022-09-02T21:34:01.813Z,1.60
2022-09-02T21:36:32.295Z,1.90
2022-09-02T21:39:04.607Z,0.98
2022-09-02T21:41:40.907Z,2.15
2022-09-02T21:44:22.733Z,0.85
2022-09-02T21:47:06.044Z,1.00
2022-09-02T21:49:57.475Z,1.52
2022-09-02T21:52:43.932Z,2.60
2022-09-02T21:55:10.382Z,1.02
2022-09-02T21:57:58.587Z,1.63
2022-09-02T22:00:25.075Z,1.40
2022-09-02T22:03:16.231Z,1.17
2022-09-02T22:05:59.244Z,1.30
2022-09-02T22:08:39.353Z,2.13
2022-09-02T22:11:26.587Z,1.13
2022-09-02T22:13:56.192Z,1.00
2022-09-02T22:16:37.470Z,1.25
2022-09-02T22:19:06.226Z,1.10
2022-09-02T22:21:49.252Z,1.08
2022-09-02T22:24:28.447Z,1.65
2022-09-02T22:27:05.884Z,2.20
2022-09-02T22:29:50.665Z,2.03
2022-09-02T22:32:20.458Z,2.15
2022-09-02T22:35:07.268Z,1.20
2022-09-02T22:37:40.843Z,2.38
2022-09-02T22:40:09.943Z,1.80
2022-09-02T22:42:38.424Z,2.03
2022-09-02T22:45:29.904Z,1.75
2022-09-02T22:48:44.451Z,1.35
2022-09-02T22:51:40.115Z,1.75
2022-09-02T22:54:06.546Z,1.08
2022-09-02T22:56:54.401Z,1.20
2022-09-02T22:59:25.533Z,1.63
2022-09-02T23:02:05.845Z,1.15
2022-09-02T23:04:44.340Z,1.10
2022-09-02T23:07:13.604Z,1.40
2022-09-02T23:09:43.626Z,2.55
2022-09-02T23:12:25.074Z,1.27
2022-09-02T23:15:10.209Z,1.10
2022-09-02T23:17:36.630Z,1.30
2022-09-02T23:20:12.528Z,2.35
2022-09-02T23:22:57.348Z,1.10
2022-09-02T23:25:50.882Z,0.77
2022-09-02T23:28:18.914Z,1.30
2022-09-02T23:30:52.350Z,1.27
2022-09-02T23:33:49.412Z,1.55
2022-09-02T23:36:17.267Z,1.40
2022-09-02T23:38:57.079Z,1.38
2022-09-02T23:41:23.779Z,1.20
2022-09-02T23:43:53.992Z,1.02
2022-09-02T23:46:45.617Z,1.23
2022-09-02T23:49:57.940Z,1.15
2022-09-02T23:52:31.175Z,1.23
2022-09-02T23:55:20.050Z,1.98
2022-09-02T23:58:05.224Z,0.90
